Time;durP1;ratioP1;P1;durP2;ratioP2;P2;SDS_P1;SDS_P2;PMS_P1;PMS_P2;Temp;Humidity;BMP_temperature;BMP_pressure;BME280_temperature;BME280_humidity;BME280_pressure;Samples;Min_cycle;Max_cycle;Signal;HPM_P1;HPM_P2
2023/08/13 00:02:03;;;;;;;1.70;0.83;;;;;;;;;;4998093;28;92105;-58
2023/08/13 00:04:31;;;;;;;2.07;1.30;;;;;;;;;;4997285;28;94397;-57
2023/08/13 00:07:01;;;;;;;1.80;1.40;;;;;;;;;;4997659;28;93072;-57
2023/08/13 00:09:31;;;;;;;2.10;1.30;;;;;;;;;;4998112;28;92050;-58
2023/08/13 00:11:59;;;;;;;2.83;1.40;;;;;;;;;;4997822;28;92088;-58
2023/08/13 00:14:28;;;;;;;2.00;1.37;;;;;;;;;;4997252;28;93397;-58
2023/08/13 00:16:56;;;;;;;2.13;1.10;;;;;;;;;;4997627;28;94703;-58
2023/08/13 00:19:25;;;;;;;1.73;0.83;;;;;;;;;;4997740;28;92053;-58
2023/08/13 00:21:53;;;;;;;3.47;1.40;;;;;;;;;;4997772;28;92161;-57
2023/08/13 00:24:36;;;;;;;2.83;1.33;;;;;;;;;;4997289;28;93313;-57
2023/08/13 00:27:04;;;;;;;1.67;1.10;;;;;;;;;;4997348;28;92629;-58
2023/08/13 00:29:33;;;;;;;2.70;1.03;;;;;;;;;;4996865;28;91978;-57
2023/08/13 00:32:01;;;;;;;1.43;0.90;;;;;;;;;;4997559;28;91036;-58
2023/08/13 00:34:30;;;;;;;2.67;0.83;;;;;;;;;;4997861;28;92818;-58
2023/08/13 00:36:58;;;;;;;1.87;1.10;;;;;;;;;;4997824;28;92736;-57
2023/08/13 00:39:27;;;;;;;1.10;0.90;;;;;;;;;;4997459;28;92683;-58
2023/08/13 00:41:57;;;;;;;1.13;1.00;;;;;;;;;;4997123;28;92033;-58
2023/08/13 00:44:25;;;;;;;3.00;1.27;;;;;;;;;;4996967;28;94042;-58
2023/08/13 00:46:54;;;;;;;2.87;1.03;;;;;;;;;;4996875;28;93843;-57
2023/08/13 00:49:23;;;;;;;1.83;0.80;;;;;;;;;;4997198;28;91969;-58
2023/08/13 00:51:52;;;;;;;2.60;0.90;;;;;;;;;;4997280;28;92116;-58
2023/08/13 00:54:21;;;;;;;2.50;0.90;;;;;;;;;;4996539;28;93069;-57
2023/08/13 00:56:50;;;;;;;1.00;0.70;;;;;;;;;;4997234;28;92980;-57
2023/08/13 00:59:20;;;;;;;3.17;0.87;;;;;;;;;;4997265;28;92048;-58
2023/08/13 01:01:48;;;;;;;1.47;0.67;;;;;;;;;;4997353;28;92621;-58
2023/08/13 01:04:17;;;;;;;1.10;0.77;;;;;;;;;;4996559;28;95221;-58
2023/08/13 01:06:48;;;;;;;1.43;0.87;;;;;;;;;;4997532;28;93819;-58
2023/08/13 01:09:27;;;;;;;2.27;1.10;;;;;;;;;;4998826;28;91752;-58
2023/08/13 01:11:59;;;;;;;2.30;0.90;;;;;;;;;;4997939;28;92091;-58
2023/08/13 01:14:29;;;;;;;1.10;0.80;;;;;;;;;;4997943;28;94009;-58
2023/08/13 01:16:57;;;;;;;1.57;0.60;;;;;;;;;;4998405;28;92579;-58
2023/08/13 01:19:26;;;;;;;1.73;0.87;;;;;;;;;;5000842;28;92086;-57
2023/08/13 01:21:54;;;;;;;3.03;0.80;;;;;;;;;;5000359;28;91387;-58
2023/08/13 01:24:24;;;;;;;0.50;0.50;;;;;;;;;;4999761;28;92991;-58
2023/08/13 01:26:57;;;;;;;2.33;0.90;;;;;;;;;;4999817;28;92759;-58
2023/08/13 01:29:28;;;;;;;0.70;0.70;;;;;;;;;;5000061;28;93078;-58
2023/08/13 01:31:57;;;;;;;1.40;0.70;;;;;;;;;;5000682;28;92039;-58
2023/08/13 01:34:25;;;;;;;0.67;0.40;;;;;;;;;;4999876;28;93088;-58
2023/08/13 01:36:54;;;;;;;1.10;0.60;;;;;;;;;;4999973;28;92961;-58
2023/08/13 01:39:22;;;;;;;1.70;0.80;;;;;;;;;;4999739;28;92034;-58
2023/08/13 01:41:53;;;;;;;3.53;0.70;;;;;;;;;;4998848;28;92090;-58
2023/08/13 01:44:22;;;;;;;5.77;0.60;;;;;;;;;;5000427;28;94081;-58
2023/08/13 01:46:50;;;;;;;1.23;0.60;;;;;;;;;;5000443;28;93024;-58
2023/08/13 01:49:19;;;;;;;1.30;0.70;;;;;;;;;;5000071;28;92048;-58
2023/08/13 01:51:48;;;;;;;2.13;1.00;;;;;;;;;;4999243;28;92235;-58
2023/08/13 01:54:16;;;;;;;2.30;0.87;;;;;;;;;;4999650;28;95219;-58
2023/08/13 01:56:45;;;;;;;1.53;0.50;;;;;;;;;;5000347;28;93853;-58
2023/08/13 01:59:15;;;;;;;0.97;0.70;;;;;;;;;;5001119;28;91991;-58
2023/08/13 02:01:43;;;;;;;1.17;0.43;;;;;;;;;;5000048;28;91960;-58
2023/08/13 02:04:11;;;;;;;2.57;0.83;;;;;;;;;;4998522;28;94256;-58
2023/08/13 02:06:40;;;;;;;3.07;0.70;;;;;;;;;;4999929;28;92771;-58
2023/08/13 02:09:08;;;;;;;0.40;0.40;;;;;;;;;;5000320;28;92037;-58
2023/08/13 02:11:37;;;;;;;0.83;0.50;;;;;;;;;;4999616;28;91412;-57
2023/08/13 02:14:05;;;;;;;0.93;0.30;;;;;;;;;;4999259;28;93265;-58
2023/08/13 02:16:35;;;;;;;1.07;0.40;;;;;;;;;;4998499;28;92816;-57
2023/08/13 02:19:04;;;;;;;2.23;0.60;;;;;;;;;;4998884;28;92798;-58
2023/08/13 02:21:32;;;;;;;3.30;0.70;;;;;;;;;;4999295;28;92092;-58
2023/08/13 02:24:00;;;;;;;1.23;0.40;;;;;;;;;;4999297;28;92983;-58
2023/08/13 02:26:29;;;;;;;1.13;0.70;;;;;;;;;;4999464;28;93742;-58
2023/08/13 02:28:57;;;;;;;5.53;0.40;;;;;;;;;;4999027;28;91859;-58
2023/08/13 02:31:26;;;;;;;2.10;0.73;;;;;;;;;;4999521;28;92111;-58
2023/08/13 02:33:56;;;;;;;1.17;0.57;;;;;;;;;;4999187;28;93078;-58
2023/08/13 02:36:24;;;;;;;2.53;0.70;;;;;;;;;;4999875;28;92369;-58
2023/08/13 02:38:53;;;;;;;1.80;0.63;;;;;;;;;;4999593;28;92162;-58
2023/08/13 02:41:21;;;;;;;0.63;0.50;;;;;;;;;;4997934;28;91988;-58
2023/08/13 02:43:51;;;;;;;2.63;0.90;;;;;;;;;;4998258;28;94032;-58
2023/08/13 02:46:19;;;;;;;0.57;0.40;;;;;;;;;;4998989;28;94699;-58
2023/08/13 02:48:47;;;;;;;2.30;0.70;;;;;;;;;;4999019;28;92163;-58
2023/08/13 02:51:17;;;;;;;0.67;0.40;;;;;;;;;;4998673;28;92106;-58
2023/08/13 02:53:46;;;;;;;0.77;0.33;;;;;;;;;;4998489;28;94140;-58
2023/08/13 02:56:14;;;;;;;0.53;0.47;;;;;;;;;;4998460;28;92435;-58
2023/08/13 02:58:43;;;;;;;2.27;0.93;;;;;;;;;;4999558;28;92536;-58
2023/08/13 03:01:11;;;;;;;3.03;0.50;;;;;;;;;;4999528;28;91368;-58
2023/08/13 03:03:40;;;;;;;1.30;0.37;;;;;;;;;;4998312;28;93221;-58
2023/08/13 03:06:22;;;;;;;1.17;0.50;;;;;;;;;;4998863;28;92699;-58
2023/08/13 03:08:50;;;;;;;0.60;0.60;;;;;;;;;;4998921;28;93009;-58
2023/08/13 03:11:19;;;;;;;0.43;0.43;;;;;;;;;;4998724;28;91999;-58
2023/08/13 03:13:47;;;;;;;2.97;0.67;;;;;;;;;;4998267;28;94172;-58
2023/08/13 03:16:16;;;;;;;0.30;0.30;;;;;;;;;;4998276;28;92605;-58
2023/08/13 03:18:44;;;;;;;2.63;0.47;;;;;;;;;;4999234;28;92095;-58
2023/08/13 03:21:13;;;;;;;0.40;0.40;;;;;;;;;;4998964;28;92078;-58
2023/08/13 03:23:42;;;;;;;1.53;0.60;;;;;;;;;;4999317;28;93189;-58
2023/08/13 03:26:11;;;;;;;1.43;0.50;;;;;;;;;;4999983;28;91306;-58
2023/08/13 03:28:39;;;;;;;1.40;0.53;;;;;;;;;;4998386;28;92000;-59
2023/08/13 03:31:08;;;;;;;1.17;0.40;;;;;;;;;;4997560;28;92104;-58
2023/08/13 03:33:36;;;;;;;0.97;0.37;;;;;;;;;;4997282;28;93870;-58
2023/08/13 03:36:05;;;;;;;0.57;0.33;;;;;;;;;;4997724;28;94749;-58
2023/08/13 03:38:33;;;;;;;0.53;0.27;;;;;;;;;;4998373;28;91932;-58
2023/08/13 03:41:03;;;;;;;0.37;0.30;;;;;;;;;;4989127;28;92991;-58
2023/08/13 03:43:31;;;;;;;0.77;0.40;;;;;;;;;;4989123;28;93059;-58
2023/08/13 03:46:00;;;;;;;1.53;0.50;;;;;;;;;;4993261;28;93828;-58
2023/08/13 03:48:28;;;;;;;1.30;0.57;;;;;;;;;;4992186;28;92181;-58
2023/08/13 03:50:57;;;;;;;3.17;0.73;;;;;;;;;;4986377;28;91424;-58
2023/08/13 03:53:26;;;;;;;1.33;0.40;;;;;;;;;;4991434;28;93250;-58
2023/08/13 03:55:54;;;;;;;1.37;0.40;;;;;;;;;;4986247;28;93831;-58
2023/08/13 03:58:24;;;;;;;2.13;0.50;;;;;;;;;;4987954;28;92868;-58
2023/08/13 04:00:52;;;;;;;1.30;0.80;;;;;;;;;;4987898;28;92016;-58
2023/08/13 04:03:21;;;;;;;2.20;0.50;;;;;;;;;;4984180;28;93282;-58
2023/08/13 04:05:54;;;;;;;1.43;0.50;;;;;;;;;;4977443;28;93918;-58
2023/08/13 04:08:22;;;;;;;0.57;0.50;;;;;;;;;;4983512;28;91926;-58
2023/08/13 04:10:51;;;;;;;1.20;0.47;;;;;;;;;;4997606;28;92239;-58
2023/08/13 04:13:19;;;;;;;3.10;0.70;;;;;;;;;;4991923;28;93007;-58
2023/08/13 04:15:49;;;;;;;1.00;0.63;;;;;;;;;;4997554;28;93223;-58
2023/08/13 04:18:18;;;;;;;2.17;0.70;;;;;;;;;;4997772;28;92131;-58
2023/08/13 04:20:46;;;;;;;0.90;0.60;;;;;;;;;;4990108;28;91897;-58
2023/08/13 04:23:15;;;;;;;4.30;0.63;;;;;;;;;;4991936;28;95245;-58
2023/08/13 04:25:43;;;;;;;2.00;0.60;;;;;;;;;;4987132;28;94728;-58
2023/08/13 04:28:11;;;;;;;2.37;0.50;;;;;;;;;;4997799;28;91784;-58
2023/08/13 04:30:40;;;;;;;1.60;0.50;;;;;;;;;;4997607;28;91994;-58
2023/08/13 04:33:10;;;;;;;2.20;0.87;;;;;;;;;;4996504;28;94162;-57
2023/08/13 04:35:38;;;;;;;1.57;0.50;;;;;;;;;;4997585;28;91894;-58
2023/08/13 04:38:07;;;;;;;2.70;0.60;;;;;;;;;;4998139;28;92046;-58
2023/08/13 04:40:35;;;;;;;0.57;0.40;;;;;;;;;;4998175;28;90997;-58
2023/08/13 04:43:04;;;;;;;0.40;0.40;;;;;;;;;;4996773;28;93099;-58
2023/08/13 04:45:32;;;;;;;4.33;0.83;;;;;;;;;;4997322;28;94178;-58
2023/08/13 04:48:01;;;;;;;6.40;0.90;;;;;;;;;;4997105;28;92749;-58
2023/08/13 04:50:32;;;;;;;1.00;0.30;;;;;;;;;;4997478;28;92089;-58
2023/08/13 04:53:01;;;;;;;4.70;0.80;;;;;;;;;;4999937;28;93130;-58
2023/08/13 04:55:29;;;;;;;5.13;0.70;;;;;;;;;;5000556;28;93801;-58
2023/08/13 04:57:58;;;;;;;1.07;0.60;;;;;;;;;;5000815;28;92164;-57
2023/08/13 05:00:26;;;;;;;3.77;0.77;;;;;;;;;;5000047;28;92049;-58
2023/08/13 05:02:54;;;;;;;1.03;0.40;;;;;;;;;;4987779;28;93976;-58
2023/08/13 05:05:24;;;;;;;0.93;0.30;;;;;;;;;;4980533;28;91476;-58
2023/08/13 05:07:54;;;;;;;0.87;0.50;;;;;;;;;;4981026;28;91972;-58
2023/08/13 05:10:23;;;;;;;2.03;0.60;;;;;;;;;;4980543;28;91988;-58
2023/08/13 05:12:51;;;;;;;1.80;0.93;;;;;;;;;;4979702;28;94025;-58
2023/08/13 05:15:20;;;;;;;2.37;1.10;;;;;;;;;;4980052;28;94981;-58
2023/08/13 05:17:48;;;;;;;1.73;1.00;;;;;;;;;;4998767;28;92061;-58
2023/08/13 05:20:17;;;;;;;2.23;0.97;;;;;;;;;;4999445;28;92241;-58
2023/08/13 05:22:46;;;;;;;1.93;1.40;;;;;;;;;;4998282;28;94164;-58
2023/08/13 05:25:16;;;;;;;1.90;1.43;;;;;;;;;;4998250;28;92041;-58
2023/08/13 05:27:44;;;;;;;3.83;1.53;;;;;;;;;;4989976;28;92054;-58
2023/08/13 05:30:13;;;;;;;2.70;1.33;;;;;;;;;;5000354;28;91403;-58
2023/08/13 05:32:41;;;;;;;2.47;1.57;;;;;;;;;;4994833;28;94277;-58
2023/08/13 05:35:10;;;;;;;3.17;2.03;;;;;;;;;;4999180;28;92679;-58
2023/08/13 05:37:38;;;;;;;7.03;2.67;;;;;;;;;;4998869;28;93200;-58
2023/08/13 05:40:08;;;;;;;5.40;2.70;;;;;;;;;;4999885;28;92178;-63
2023/08/13 05:42:38;;;;;;;6.57;2.57;;;;;;;;;;4996878;28;93283;-58
2023/08/13 05:45:07;;;;;;;4.97;2.53;;;;;;;;;;4998902;28;93950;-58
2023/08/13 05:47:36;;;;;;;6.50;2.83;;;;;;;;;;4980370;28;91997;-58
2023/08/13 05:50:04;;;;;;;4.20;3.20;;;;;;;;;;4979981;28;92017;-58
2023/08/13 05:52:33;;;;;;;4.63;2.83;;;;;;;;;;4997351;28;93239;-58
2023/08/13 05:55:01;;;;;;;4.17;3.03;;;;;;;;;;4998669;28;93890;-58
2023/08/13 05:57:30;;;;;;;4.37;3.03;;;;;;;;;;4998678;28;92037;-58
2023/08/13 05:59:59;;;;;;;4.07;3.30;;;;;;;;;;4997777;28;92054;-58
2023/08/13 06:02:28;;;;;;;5.77;3.20;;;;;;;;;;4995868;28;93906;-58
2023/08/13 06:04:56;;;;;;;5.87;3.60;;;;;;;;;;4997874;28;93644;-58
2023/08/13 06:07:25;;;;;;;4.73;3.17;;;;;;;;;;4997845;28;92262;-58
2023/08/13 06:09:54;;;;;;;4.57;2.93;;;;;;;;;;4998544;28;92115;-58
2023/08/13 06:12:22;;;;;;;3.70;2.70;;;;;;;;;;4998209;28;94090;-58
2023/08/13 06:14:50;;;;;;;5.57;3.20;;;;;;;;;;4997398;28;93671;-58
2023/08/13 06:17:20;;;;;;;3.90;2.83;;;;;;;;;;4988431;28;92046;-58
2023/08/13 06:19:49;;;;;;;5.97;2.93;;;;;;;;;;5000348;28;91301;-58
2023/08/13 06:22:17;;;;;;;4.73;3.13;;;;;;;;;;4996375;28;94191;-58
2023/08/13 06:24:47;;;;;;;5.27;2.90;;;;;;;;;;4994319;28;92742;-58
2023/08/13 06:27:15;;;;;;;3.30;3.00;;;;;;;;;;4996699;28;92702;-58
2023/08/13 06:29:44;;;;;;;4.37;2.87;;;;;;;;;;4996990;28;92008;-58
2023/08/13 06:32:34;;;;;;;6.27;3.27;;;;;;;;;;4986422;28;92720;-58
2023/08/13 06:35:02;;;;;;;5.03;2.77;;;;;;;;;;4998491;28;92813;-58
2023/08/13 06:37:31;;;;;;;4.50;2.80;;;;;;;;;;4997809;28;92251;-58
2023/08/13 06:40:04;;;;;;;6.10;3.07;;;;;;;;;;4998500;28;92162;-58
2023/08/13 06:42:32;;;;;;;4.33;2.90;;;;;;;;;;4997456;28;93128;-57
2023/08/13 06:45:01;;;;;;;7.83;3.37;;;;;;;;;;4986803;28;92741;-58
2023/08/13 06:47:30;;;;;;;3.87;2.50;;;;;;;;;;4991481;28;92173;-57
2023/08/13 06:50:00;;;;;;;5.07;2.57;;;;;;;;;;4995921;28;92520;-58
2023/08/13 06:52:28;;;;;;;4.37;2.40;;;;;;;;;;4992818;28;95045;-57
2023/08/13 06:54:57;;;;;;;4.20;2.37;;;;;;;;;;4995298;28;94938;-59
2023/08/13 06:57:25;;;;;;;2.80;2.13;;;;;;;;;;4993270;28;92134;-58
2023/08/13 07:00:10;;;;;;;4.73;2.00;;;;;;;;;;4990836;28;93164;-58
2023/08/13 07:02:59;;;;;;;2.93;2.30;;;;;;;;;;4931094;28;93127;-58
2023/08/13 07:05:29;;;;;;;2.57;1.60;;;;;;;;;;4993377;28;92629;-58
2023/08/13 07:08:00;;;;;;;3.07;2.10;;;;;;;;;;4993699;28;92157;-58
2023/08/13 07:10:29;;;;;;;2.33;1.80;;;;;;;;;;4994346;28;91387;-58
2023/08/13 07:12:58;;;;;;;2.13;1.80;;;;;;;;;;4994198;28;92748;-58
2023/08/13 07:15:26;;;;;;;2.87;1.67;;;;;;;;;;4992825;28;93901;-58
2023/08/13 07:17:55;;;;;;;3.10;2.03;;;;;;;;;;4995414;28;93030;-58
2023/08/13 07:20:24;;;;;;;1.73;1.33;;;;;;;;;;4991663;28;94054;-58
2023/08/13 07:22:58;;;;;;;3.67;1.20;;;;;;;;;;4988795;28;93925;-57
2023/08/13 07:25:27;;;;;;;3.27;1.57;;;;;;;;;;4989588;28;95484;-58
2023/08/13 07:27:56;;;;;;;2.77;1.50;;;;;;;;;;4988816;28;92143;-58
2023/08/13 07:30:25;;;;;;;2.20;1.60;;;;;;;;;;4993278;28;92238;-59
2023/08/13 07:32:53;;;;;;;2.13;1.43;;;;;;;;;;4992997;28;94191;-57
2023/08/13 07:35:22;;;;;;;1.97;1.07;;;;;;;;;;4993354;28;92411;-58
2023/08/13 07:37:50;;;;;;;1.30;1.20;;;;;;;;;;4994450;28;92130;-58
2023/08/13 07:40:21;;;;;;;1.53;1.23;;;;;;;;;;4994760;28;92663;-58
2023/08/13 07:42:49;;;;;;;2.00;1.37;;;;;;;;;;4993636;28;94019;-58
2023/08/13 07:45:18;;;;;;;1.30;0.87;;;;;;;;;;4992415;28;93891;-58
2023/08/13 07:47:46;;;;;;;1.73;1.00;;;;;;;;;;4994757;28;92158;-58
2023/08/13 07:50:15;;;;;;;2.40;1.10;;;;;;;;;;4993859;28;92151;-58
2023/08/13 07:52:43;;;;;;;1.37;0.87;;;;;;;;;;4993856;28;93235;-58
2023/08/13 07:55:12;;;;;;;2.50;1.30;;;;;;;;;;4993400;28;93792;-57
2023/08/13 07:57:42;;;;;;;0.80;0.80;;;;;;;;;;4991165;28;92558;-57
2023/08/13 08:00:11;;;;;;;1.20;1.00;;;;;;;;;;4994698;28;91423;-57
2023/08/13 08:02:40;;;;;;;2.07;0.83;;;;;;;;;;4989386;28;94172;-58
2023/08/13 08:05:09;;;;;;;1.20;0.83;;;;;;;;;;4979931;28;92635;-58
2023/08/13 08:07:37;;;;;;;2.37;1.23;;;;;;;;;;4992924;28;93001;-58
2023/08/13 08:10:07;;;;;;;1.27;1.17;;;;;;;;;;4993633;28;92147;-57
2023/08/13 08:12:35;;;;;;;2.40;1.27;;;;;;;;;;4990410;28;93790;-58
2023/08/13 08:15:06;;;;;;;7.37;1.30;;;;;;;;;;4991773;28;92796;-58
2023/08/13 08:17:35;;;;;;;4.43;1.60;;;;;;;;;;4993980;28;92699;-57
2023/08/13 08:20:04;;;;;;;4.70;1.80;;;;;;;;;;4993300;28;92164;-57
2023/08/13 08:22:34;;;;;;;3.07;2.20;;;;;;;;;;4992519;28;93092;-58
2023/08/13 08:25:07;;;;;;;3.13;2.37;;;;;;;;;;4990979;28;92741;-58
2023/08/13 08:27:35;;;;;;;4.33;3.17;;;;;;;;;;4991937;28;93793;-58
2023/08/13 08:30:06;;;;;;;7.27;3.40;;;;;;;;;;4992057;28;92240;-58
2023/08/13 08:32:35;;;;;;;4.07;2.70;;;;;;;;;;4994922;28;93121;-58
2023/08/13 08:35:04;;;;;;;4.07;2.80;;;;;;;;;;4997087;28;93649;-58
2023/08/13 08:37:33;;;;;;;5.17;3.10;;;;;;;;;;4995896;28;92165;-58
2023/08/13 08:40:01;;;;;;;6.90;2.57;;;;;;;;;;4992560;28;93735;-58
2023/08/13 08:42:30;;;;;;;3.13;2.70;;;;;;;;;;4996743;28;93326;-58
2023/08/13 08:44:59;;;;;;;4.97;2.93;;;;;;;;;;4995707;28;92736;-58
2023/08/13 08:47:29;;;;;;;3.17;2.03;;;;;;;;;;4996333;28;92093;-58
2023/08/13 08:49:57;;;;;;;2.53;2.33;;;;;;;;;;4978347;28;91386;-58
2023/08/13 08:52:26;;;;;;;4.10;2.40;;;;;;;;;;4994065;28;94440;-58
2023/08/13 08:54:57;;;;;;;4.67;2.67;;;;;;;;;;4995495;28;94192;-57
2023/08/13 08:57:25;;;;;;;1.93;1.77;;;;;;;;;;4992268;28;93106;-57
2023/08/13 08:59:54;;;;;;;3.97;2.27;;;;;;;;;;4995046;28;93746;-58
2023/08/13 09:02:23;;;;;;;5.63;2.13;;;;;;;;;;4996131;28;93220;-57
2023/08/13 09:04:52;;;;;;;2.57;1.90;;;;;;;;;;4992669;28;92748;-58
2023/08/13 09:07:21;;;;;;;2.50;1.67;;;;;;;;;;4987580;28;92088;-57
2023/08/13 09:09:50;;;;;;;2.27;1.60;;;;;;;;;;4994580;28;92624;-57
2023/08/13 09:12:18;;;;;;;5.13;1.80;;;;;;;;;;4994496;28;93265;-57
2023/08/13 09:14:47;;;;;;;2.60;1.77;;;;;;;;;;4995771;28;94119;-57
2023/08/13 09:17:15;;;;;;;2.80;1.53;;;;;;;;;;4996510;28;92129;-57
2023/08/13 09:19:44;;;;;;;3.13;1.97;;;;;;;;;;4977035;28;92167;-57
2023/08/13 09:22:14;;;;;;;1.83;1.53;;;;;;;;;;4991514;28;94182;-57
2023/08/13 09:24:43;;;;;;;3.37;2.17;;;;;;;;;;4994634;28;93683;-57
2023/08/13 09:27:12;;;;;;;2.87;1.90;;;;;;;;;;4984626;28;92125;-57
2023/08/13 09:29:41;;;;;;;3.87;1.60;;;;;;;;;;4977840;28;92119;-58
2023/08/13 09:32:09;;;;;;;2.73;1.87;;;;;;;;;;4995085;28;92925;-58
2023/08/13 09:34:38;;;;;;;2.73;1.73;;;;;;;;;;4993039;28;93983;-58
2023/08/13 09:37:06;;;;;;;3.73;2.30;;;;;;;;;;4995560;28;92068;-58
2023/08/13 09:39:36;;;;;;;3.27;1.90;;;;;;;;;;4994900;28;91401;-57
2023/08/13 09:42:06;;;;;;;1.83;1.63;;;;;;;;;;4995615;28;93006;-58
2023/08/13 09:44:34;;;;;;;2.87;1.60;;;;;;;;;;4993152;28;93942;-58
2023/08/13 09:47:03;;;;;;;3.33;1.70;;;;;;;;;;4994375;28;93164;-57
2023/08/13 09:49:32;;;;;;;3.73;1.77;;;;;;;;;;4977128;28;91940;-57
2023/08/13 09:52:01;;;;;;;2.90;1.90;;;;;;;;;;4991980;28;93453;-57
2023/08/13 09:54:30;;;;;;;5.17;2.17;;;;;;;;;;4991100;28;93057;-57
2023/08/13 09:57:03;;;;;;;3.97;1.67;;;;;;;;;;4994863;28;93271;-57
2023/08/13 09:59:32;;;;;;;3.93;1.97;;;;;;;;;;4995098;28;92084;-58
2023/08/13 10:02:01;;;;;;;2.97;1.90;;;;;;;;;;4994168;28;92970;-57
2023/08/13 10:04:29;;;;;;;1.67;1.30;;;;;;;;;;4995460;28;93298;-57
2023/08/13 10:06:58;;;;;;;1.87;1.60;;;;;;;;;;4993785;28;93136;-58
2023/08/13 10:09:27;;;;;;;1.93;1.40;;;;;;;;;;4994558;28;93366;-57
2023/08/13 10:11:55;;;;;;;1.60;1.40;;;;;;;;;;4995112;28;94056;-58
2023/08/13 10:14:25;;;;;;;1.93;1.27;;;;;;;;;;4994684;28;93626;-58
2023/08/13 10:16:54;;;;;;;4.80;1.30;;;;;;;;;;4996323;28;92668;-58
2023/08/13 10:19:29;;;;;;;2.70;1.33;;;;;;;;;;4995610;28;92125;-58
2023/08/13 10:21:57;;;;;;;1.10;1.00;;;;;;;;;;4993290;28;94185;-58
2023/08/13 10:24:27;;;;;;;3.27;1.40;;;;;;;;;;4994517;28;92677;-57
2023/08/13 10:26:56;;;;;;;2.33;1.13;;;;;;;;;;4995762;28;92118;-57
2023/08/13 10:29:26;;;;;;;3.30;1.60;;;;;;;;;;4993837;28;91370;-57
2023/08/13 10:31:59;;;;;;;2.80;1.43;;;;;;;;;;4992186;28;93118;-57
2023/08/13 10:34:39;;;;;;;2.30;1.60;;;;;;;;;;4990993;28;94581;-58
2023/08/13 10:37:15;;;;;;;3.33;1.60;;;;;;;;;;4995739;28;93333;-57
2023/08/13 10:39:43;;;;;;;8.97;1.57;;;;;;;;;;4993162;28;92612;-58
2023/08/13 10:42:42;;;;;;;4.43;1.67;;;;;;;;;;4993738;28;93082;-57
2023/08/13 10:45:12;;;;;;;2.57;1.43;;;;;;;;;;4913865;28;92859;-58
2023/08/13 10:47:40;;;;;;;1.70;1.23;;;;;;;;;;4962721;28;92281;-57
2023/08/13 10:50:10;;;;;;;1.87;1.20;;;;;;;;;;4979580;28;92174;-57
2023/08/13 10:52:38;;;;;;;2.27;1.57;;;;;;;;;;4995206;28;94093;-57
2023/08/13 10:55:07;;;;;;;2.53;1.40;;;;;;;;;;4996437;28;93844;-57
2023/08/13 10:57:36;;;;;;;3.23;1.57;;;;;;;;;;4993874;28;92201;-57
2023/08/13 11:00:05;;;;;;;2.33;1.57;;;;;;;;;;4993728;28;92236;-57
2023/08/13 11:02:34;;;;;;;2.67;1.37;;;;;;;;;;4992798;28;95085;-57
2023/08/13 11:05:03;;;;;;;1.90;1.50;;;;;;;;;;4988978;28;94758;-58
2023/08/13 11:07:32;;;;;;;3.23;1.87;;;;;;;;;;4975561;28;92113;-57
2023/08/13 11:10:01;;;;;;;2.83;1.60;;;;;;;;;;4974966;28;92221;-57
2023/08/13 11:12:29;;;;;;;5.73;1.90;;;;;;;;;;4975869;28;94176;-57
2023/08/13 11:15:00;;;;;;;1.87;1.50;;;;;;;;;;4995094;28;92692;-57
2023/08/13 11:17:28;;;;;;;2.40;1.73;;;;;;;;;;4993621;28;92831;-57
2023/08/13 11:19:58;;;;;;;3.63;2.10;;;;;;;;;;4991674;28;91936;-58
2023/08/13 11:22:27;;;;;;;3.30;1.93;;;;;;;;;;4997713;28;93261;-57
2023/08/13 11:24:55;;;;;;;2.87;1.67;;;;;;;;;;4998154;28;93909;-57
2023/08/13 11:27:28;;;;;;;5.60;2.20;;;;;;;;;;4998132;28;93142;-57
2023/08/13 11:29:56;;;;;;;4.37;2.00;;;;;;;;;;4996380;28;92019;-57
2023/08/13 11:32:24;;;;;;;3.20;2.20;;;;;;;;;;4997494;28;93152;-57
2023/08/13 11:34:53;;;;;;;2.07;1.63;;;;;;;;;;4997436;28;92026;-57
2023/08/13 11:37:23;;;;;;;3.57;2.10;;;;;;;;;;4997432;28;91868;-57
2023/08/13 11:39:51;;;;;;;3.17;2.53;;;;;;;;;;4997834;28;92112;-57
2023/08/13 11:42:20;;;;;;;3.83;2.67;;;;;;;;;;4997617;28;93160;-57
2023/08/13 11:44:51;;;;;;;3.33;2.50;;;;;;;;;;4997896;28;92726;-57
2023/08/13 11:47:26;;;;;;;6.17;3.13;;;;;;;;;;4997646;28;91965;-58
2023/08/13 11:49:59;;;;;;;3.77;2.27;;;;;;;;;;4994345;28;92133;-57
2023/08/13 11:52:29;;;;;;;3.47;2.30;;;;;;;;;;4985680;28;93838;-57
2023/08/13 11:54:58;;;;;;;3.60;2.47;;;;;;;;;;4988402;28;94738;-58
2023/08/13 11:57:28;;;;;;;3.53;2.97;;;;;;;;;;4993693;28;92041;-55
2023/08/13 11:59:58;;;;;;;3.93;2.80;;;;;;;;;;4993435;28;92152;-56
2023/08/13 12:02:27;;;;;;;4.43;2.70;;;;;;;;;;4994333;28;93099;-56
2023/08/13 12:04:55;;;;;;;6.37;2.97;;;;;;;;;;4987529;28;92935;-57
2023/08/13 12:07:31;;;;;;;5.67;2.83;;;;;;;;;;4982195;28;92033;-57
2023/08/13 12:10:01;;;;;;;5.37;3.30;;;;;;;;;;4979797;28;92578;-56
2023/08/13 12:12:29;;;;;;;5.90;3.30;;;;;;;;;;4977711;28;93119;-58
2023/08/13 12:14:58;;;;;;;2.97;2.57;;;;;;;;;;4979108;28;92740;-56
2023/08/13 12:17:26;;;;;;;4.93;2.87;;;;;;;;;;4993461;28;93054;-58
2023/08/13 12:19:54;;;;;;;5.17;2.77;;;;;;;;;;4995192;28;92068;-57
2023/08/13 12:22:23;;;;;;;3.13;2.10;;;;;;;;;;4995902;28;94003;-57
2023/08/13 12:24:51;;;;;;;2.77;2.30;;;;;;;;;;4984689;28;93844;-57
2023/08/13 12:27:21;;;;;;;4.93;2.73;;;;;;;;;;4983624;28;94879;-57
2023/08/13 12:29:50;;;;;;;1.97;1.70;;;;;;;;;;4993267;28;92052;-57
2023/08/13 12:32:18;;;;;;;4.23;1.80;;;;;;;;;;4988018;28;94117;-57
2023/08/13 12:34:47;;;;;;;4.40;1.77;;;;;;;;;;4995483;28;92429;-58
2023/08/13 12:37:15;;;;;;;7.37;1.77;;;;;;;;;;4993463;28;92190;-57
2023/08/13 12:39:43;;;;;;;4.10;2.10;;;;;;;;;;4991190;28;92158;-57
2023/08/13 12:42:13;;;;;;;2.53;1.93;;;;;;;;;;4993146;28;94089;-57
2023/08/13 12:44:43;;;;;;;2.90;1.40;;;;;;;;;;4995969;28;94830;-57
2023/08/13 12:47:11;;;;;;;2.30;1.70;;;;;;;;;;4997264;28;92322;-58
2023/08/13 12:49:40;;;;;;;3.47;1.80;;;;;;;;;;4996655;28;91955;-58
2023/08/13 12:52:08;;;;;;;1.53;1.27;;;;;;;;;;4996842;28;93112;-58
2023/08/13 12:54:37;;;;;;;2.13;1.63;;;;;;;;;;4997069;28;93991;-58
2023/08/13 12:57:05;;;;;;;2.00;1.23;;;;;;;;;;4997306;28;91979;-58
2023/08/13 12:59:33;;;;;;;1.50;1.20;;;;;;;;;;4997148;28;91302;-57
2023/08/13 13:02:03;;;;;;;4.87;1.60;;;;;;;;;;4996474;28;93147;-57
2023/08/13 13:04:32;;;;;;;2.90;1.30;;;;;;;;;;4995805;28;93878;-57
2023/08/13 13:07:00;;;;;;;2.30;1.70;;;;;;;;;;4996890;28;92897;-57
2023/08/13 13:09:29;;;;;;;2.83;1.47;;;;;;;;;;4997497;28;92169;-57
2023/08/13 13:11:57;;;;;;;2.40;1.87;;;;;;;;;;4996823;28;92898;-57
2023/08/13 13:14:25;;;;;;;5.43;1.70;;;;;;;;;;4999988;28;93056;-57
2023/08/13 13:16:59;;;;;;;2.50;1.37;;;;;;;;;;4999645;28;92009;-57
2023/08/13 13:19:28;;;;;;;3.23;1.93;;;;;;;;;;5000293;28;92164;-57
2023/08/13 13:21:57;;;;;;;1.23;1.10;;;;;;;;;;4999918;28;93315;-57
2023/08/13 13:24:25;;;;;;;2.57;1.27;;;;;;;;;;4999724;28;92718;-57
2023/08/13 13:26:54;;;;;;;5.40;1.80;;;;;;;;;;5000270;28;91980;-57
2023/08/13 13:29:22;;;;;;;1.57;1.30;;;;;;;;;;5000333;28;92049;-57
2023/08/13 13:31:50;;;;;;;3.13;1.60;;;;;;;;;;4998598;28;94017;-57
2023/08/13 13:34:19;;;;;;;3.37;1.40;;;;;;;;;;5000252;28;94722;-57
2023/08/13 13:36:49;;;;;;;2.80;1.30;;;;;;;;;;5000017;28;91878;-57
2023/08/13 13:39:17;;;;;;;6.83;2.03;;;;;;;;;;4999149;28;92063;-57
2023/08/13 13:41:46;;;;;;;2.40;1.47;;;;;;;;;;4998852;28;93155;-57
2023/08/13 13:44:14;;;;;;;1.70;0.90;;;;;;;;;;4999584;28;93895;-57
2023/08/13 13:46:43;;;;;;;2.87;1.20;;;;;;;;;;4999360;28;92047;-57
2023/08/13 13:49:11;;;;;;;1.23;1.00;;;;;;;;;;4999926;28;91375;-57
2023/08/13 13:51:41;;;;;;;1.20;1.10;;;;;;;;;;4999150;28;93396;-57
2023/08/13 13:54:11;;;;;;;1.83;1.17;;;;;;;;;;4999182;28;92464;-57
2023/08/13 13:56:39;;;;;;;1.43;1.10;;;;;;;;;;4998716;28;92975;-57
2023/08/13 13:59:11;;;;;;;1.40;1.03;;;;;;;;;;4999475;28;92017;-57
2023/08/13 14:01:39;;;;;;;2.00;1.27;;;;;;;;;;4999023;28;93459;-57
2023/08/13 14:04:10;;;;;;;3.90;1.00;;;;;;;;;;4998856;28;93980;-57
2023/08/13 14:06:41;;;;;;;2.87;1.53;;;;;;;;;;4999813;28;91755;-57
2023/08/13 14:09:11;;;;;;;3.30;1.07;;;;;;;;;;4998719;28;92017;-57
2023/08/13 14:11:40;;;;;;;1.47;0.90;;;;;;;;;;4999505;28;94014;-57
2023/08/13 14:14:11;;;;;;;1.73;1.33;;;;;;;;;;5000194;28;92637;-57
2023/08/13 14:16:39;;;;;;;4.70;0.93;;;;;;;;;;4999457;28;91797;-57
2023/08/13 14:19:07;;;;;;;1.13;0.90;;;;;;;;;;4998837;28;92100;-57
2023/08/13 14:21:36;;;;;;;0.80;0.80;;;;;;;;;;4998473;28;93920;-57
2023/08/13 14:24:05;;;;;;;1.77;1.17;;;;;;;;;;4997206;28;94830;-57
2023/08/13 14:26:36;;;;;;;4.60;0.90;;;;;;;;;;4999379;28;91922;-57
2023/08/13 14:29:05;;;;;;;2.13;1.03;;;;;;;;;;4998755;28;92053;-57
2023/08/13 14:31:34;;;;;;;2.07;1.00;;;;;;;;;;4998791;28;93094;-57
2023/08/13 14:34:05;;;;;;;0.60;0.57;;;;;;;;;;4995271;28;92493;-57
2023/08/13 14:36:35;;;;;;;1.00;0.90;;;;;;;;;;4977137;28;92204;-57
2023/08/13 14:39:07;;;;;;;1.17;0.90;;;;;;;;;;4976493;28;91276;-57
2023/08/13 14:41:44;;;;;;;1.20;0.70;;;;;;;;;;4975527;28;93037;-57
2023/08/13 14:44:14;;;;;;;0.90;0.70;;;;;;;;;;4975835;28;92825;-57
2023/08/13 14:46:43;;;;;;;2.23;0.90;;;;;;;;;;4975549;28;92927;-57
2023/08/13 14:49:12;;;;;;;1.37;0.83;;;;;;;;;;4975668;28;92013;-57
2023/08/13 14:51:40;;;;;;;1.43;0.90;;;;;;;;;;4975683;28;93749;-57
2023/08/13 14:54:13;;;;;;;1.60;0.87;;;;;;;;;;4976355;28;95018;-57
2023/08/13 14:56:46;;;;;;;1.37;1.10;;;;;;;;;;4976557;28;91995;-57